sensor_id;sensor_type;location;lat;lon;timestamp;temperature;humidity
74155;DHT22;62509;46.248;6.018;2024-01-27T00:04:13;8.00;99.90
74155;DHT22;62509;46.248;6.018;2024-01-27T00:09:17;7.90;99.90
74155;DHT22;62509;46.248;6.018;2024-01-27T00:14:20;7.70;99.90
74155;DHT22;62509;46.248;6.018;2024-01-27T00:19:25;7.70;99.90
74155;DHT22;62509;46.248;6.018;2024-01-27T00:24:29;7.70;99.90
74155;DHT22;62509;46.248;6.018;2024-01-27T00:29:32;7.70;99.90
74155;DHT22;62509;46.248;6.018;2024-01-27T00:34:37;7.60;99.90
74155;DHT22;62509;46.248;6.018;2024-01-27T00:39:41;7.60;99.90
74155;DHT22;62509;46.248;6.018;2024-01-27T00:44:44;7.50;99.90
74155;DHT22;62509;46.248;6.018;2024-01-27T00:49:49;7.50;99.90
74155;DHT22;62509;46.248;6.018;2024-01-27T00:54:52;7.50;99.90
74155;DHT22;62509;46.248;6.018;2024-01-27T00:59:56;7.50;99.90
74155;DHT22;62509;46.248;6.018;2024-01-27T01:05:01;7.50;99.90
74155;DHT22;62509;46.248;6.018;2024-01-27T01:10:06;7.40;99.90
74155;DHT22;62509;46.248;6.018;2024-01-27T01:15:10;7.40;99.90
74155;DHT22;62509;46.248;6.018;2024-01-27T01:20:16;7.30;99.90
74155;DHT22;62509;46.248;6.018;2024-01-27T01:25:20;7.20;99.90
74155;DHT22;62509;46.248;6.018;2024-01-27T01:30:23;7.10;99.90
74155;DHT22;62509;46.248;6.018;2024-01-27T01:35:28;7.10;99.90
74155;DHT22;62509;46.248;6.018;2024-01-27T01:40:32;7.10;99.90
74155;DHT22;62509;46.248;6.018;2024-01-27T01:45:35;7.00;99.90
74155;DHT22;62509;46.248;6.018;2024-01-27T01:50:40;6.90;99.90
74155;DHT22;62509;46.248;6.018;2024-01-27T01:55:44;6.80;99.90
74155;DHT22;62509;46.248;6.018;2024-01-27T02:00:48;6.70;99.90
74155;DHT22;62509;46.248;6.018;2024-01-27T02:05:53;6.60;99.90
74155;DHT22;62509;46.248;6.018;2024-01-27T02:10:57;6.60;99.90
74155;DHT22;62509;46.248;6.018;2024-01-27T02:16:03;6.60;99.90
74155;DHT22;62509;46.248;6.018;2024-01-27T02:21:08;6.60;99.90
74155;DHT22;62509;46.248;6.018;2024-01-27T02:26:13;6.50;99.90
74155;DHT22;62509;46.248;6.018;2024-01-27T02:31:16;6.40;99.90
74155;DHT22;62509;46.248;6.018;2024-01-27T02:36:20;6.40;99.90
74155;DHT22;62509;46.248;6.018;2024-01-27T02:41:25;6.30;99.90
74155;DHT22;62509;46.248;6.018;2024-01-27T02:46:29;6.30;99.90
74155;DHT22;62509;46.248;6.018;2024-01-27T02:51:33;6.20;99.90
74155;DHT22;62509;46.248;6.018;2024-01-27T02:56:38;6.20;99.90
74155;DHT22;62509;46.248;6.018;2024-01-27T03:01:42;6.10;99.90
74155;DHT22;62509;46.248;6.018;2024-01-27T03:06:45;6.10;99.90
74155;DHT22;62509;46.248;6.018;2024-01-27T03:11:50;6.00;99.90
74155;DHT22;62509;46.248;6.018;2024-01-27T03:16:54;5.90;99.90
74155;DHT22;62509;46.248;6.018;2024-01-27T03:21:57;5.80;99.90
74155;DHT22;62509;46.248;6.018;2024-01-27T03:27:03;5.80;99.90
74155;DHT22;62509;46.248;6.018;2024-01-27T03:32:06;5.90;99.90
74155;DHT22;62509;46.248;6.018;2024-01-27T03:37:10;5.90;99.90
74155;DHT22;62509;46.248;6.018;2024-01-27T03:42:15;5.90;99.90
74155;DHT22;62509;46.248;6.018;2024-01-27T03:47:19;5.90;99.90
74155;DHT22;62509;46.248;6.018;2024-01-27T03:52:23;5.90;99.90
74155;DHT22;62509;46.248;6.018;2024-01-27T03:57:28;5.80;99.90
74155;DHT22;62509;46.248;6.018;2024-01-27T04:02:31;5.70;99.90
74155;DHT22;62509;46.248;6.018;2024-01-27T04:07:35;5.60;99.90
74155;DHT22;62509;46.248;6.018;2024-01-27T04:12:40;5.70;99.90
74155;DHT22;62509;46.248;6.018;2024-01-27T04:17:46;5.60;99.90
74155;DHT22;62509;46.248;6.018;2024-01-27T04:22:49;5.70;99.90
74155;DHT22;62509;46.248;6.018;2024-01-27T04:27:54;5.80;99.90
74155;DHT22;62509;46.248;6.018;2024-01-27T04:32:57;6.00;99.90
74155;DHT22;62509;46.248;6.018;2024-01-27T04:38:01;6.10;99.90
74155;DHT22;62509;46.248;6.018;2024-01-27T04:43:07;6.20;99.90
74155;DHT22;62509;46.248;6.018;2024-01-27T04:48:10;6.20;99.90
74155;DHT22;62509;46.248;6.018;2024-01-27T04:53:14;6.30;99.90
74155;DHT22;62509;46.248;6.018;2024-01-27T04:58:19;6.50;99.90
74155;DHT22;62509;46.248;6.018;2024-01-27T05:03:23;6.50;99.90
74155;DHT22;62509;46.248;6.018;2024-01-27T05:08:26;6.60;99.90
74155;DHT22;62509;46.248;6.018;2024-01-27T05:13:31;6.60;99.90
74155;DHT22;62509;46.248;6.018;2024-01-27T05:18:34;6.70;99.90
74155;DHT22;62509;46.248;6.018;2024-01-27T05:23:38;6.80;99.90
74155;DHT22;62509;46.248;6.018;2024-01-27T05:28:42;6.80;99.90
74155;DHT22;62509;46.248;6.018;2024-01-27T05:33:46;6.90;99.90
74155;DHT22;62509;46.248;6.018;2024-01-27T05:38:49;6.90;99.90
74155;DHT22;62509;46.248;6.018;2024-01-27T05:43:54;6.90;99.90
74155;DHT22;62509;46.248;6.018;2024-01-27T05:48:59;6.80;99.90
74155;DHT22;62509;46.248;6.018;2024-01-27T05:54:06;6.80;99.90
74155;DHT22;62509;46.248;6.018;2024-01-27T05:59:12;6.90;99.90
74155;DHT22;62509;46.248;6.018;2024-01-27T06:04:15;6.80;99.90
74155;DHT22;62509;46.248;6.018;2024-01-27T06:09:19;6.70;99.90
74155;DHT22;62509;46.248;6.018;2024-01-27T06:14:25;6.50;99.90
74155;DHT22;62509;46.248;6.018;2024-01-27T06:19:28;6.40;99.90
74155;DHT22;62509;46.248;6.018;2024-01-27T06:24:32;6.30;99.90
74155;DHT22;62509;46.248;6.018;2024-01-27T06:29:37;6.30;99.90
74155;DHT22;62509;46.248;6.018;2024-01-27T06:34:42;6.20;99.90
74155;DHT22;62509;46.248;6.018;2024-01-27T06:39:45;6.20;99.90
74155;DHT22;62509;46.248;6.018;2024-01-27T06:44:50;6.20;99.90
74155;DHT22;62509;46.248;6.018;2024-01-27T06:49:54;6.20;99.90
74155;DHT22;62509;46.248;6.018;2024-01-27T06:54:57;6.20;99.90
74155;DHT22;62509;46.248;6.018;2024-01-27T07:00:02;6.20;99.90
74155;DHT22;62509;46.248;6.018;2024-01-27T07:05:07;6.30;99.90
74155;DHT22;62509;46.248;6.018;2024-01-27T07:10:11;6.30;99.90
74155;DHT22;62509;46.248;6.018;2024-01-27T07:15:16;6.30;99.90
74155;DHT22;62509;46.248;6.018;2024-01-27T07:20:19;6.40;99.90
74155;DHT22;62509;46.248;6.018;2024-01-27T07:25:25;6.50;99.90
74155;DHT22;62509;46.248;6.018;2024-01-27T07:30:31;6.60;99.90
74155;DHT22;62509;46.248;6.018;2024-01-27T07:35:35;6.70;99.90
74155;DHT22;62509;46.248;6.018;2024-01-27T07:40:38;6.80;99.90
74155;DHT22;62509;46.248;6.018;2024-01-27T07:45:43;6.90;99.90
74155;DHT22;62509;46.248;6.018;2024-01-27T07:50:47;7.00;99.90
74155;DHT22;62509;46.248;6.018;2024-01-27T07:55:52;7.10;99.90
74155;DHT22;62509;46.248;6.018;2024-01-27T08:00:59;7.20;99.90
74155;DHT22;62509;46.248;6.018;2024-01-27T08:06:04;7.30;99.90
74155;DHT22;62509;46.248;6.018;2024-01-27T08:11:09;7.50;99.90
74155;DHT22;62509;46.248;6.018;2024-01-27T08:16:14;7.50;99.90
74155;DHT22;62509;46.248;6.018;2024-01-27T08:21:17;7.60;99.90
74155;DHT22;62509;46.248;6.018;2024-01-27T08:26:20;7.70;99.90
74155;DHT22;62509;46.248;6.018;2024-01-27T08:31:25;7.80;99.90
74155;DHT22;62509;46.248;6.018;2024-01-27T08:36:29;7.90;99.90
74155;DHT22;62509;46.248;6.018;2024-01-27T08:41:33;8.00;99.90
74155;DHT22;62509;46.248;6.018;2024-01-27T08:46:38;8.10;99.90
74155;DHT22;62509;46.248;6.018;2024-01-27T08:51:42;8.20;99.90
74155;DHT22;62509;46.248;6.018;2024-01-27T08:56:46;8.30;99.90
74155;DHT22;62509;46.248;6.018;2024-01-27T09:01:51;8.40;99.90
74155;DHT22;62509;46.248;6.018;2024-01-27T09:06:54;8.50;99.90
74155;DHT22;62509;46.248;6.018;2024-01-27T09:11:57;8.60;99.90
74155;DHT22;62509;46.248;6.018;2024-01-27T09:17:03;8.60;99.90
74155;DHT22;62509;46.248;6.018;2024-01-27T09:22:06;8.70;99.90
74155;DHT22;62509;46.248;6.018;2024-01-27T09:27:09;8.80;99.90
74155;DHT22;62509;46.248;6.018;2024-01-27T09:32:14;9.00;99.90
74155;DHT22;62509;46.248;6.018;2024-01-27T09:37:18;9.10;99.90
74155;DHT22;62509;46.248;6.018;2024-01-27T09:42:21;9.20;99.90
74155;DHT22;62509;46.248;6.018;2024-01-27T09:47:26;9.30;99.90
74155;DHT22;62509;46.248;6.018;2024-01-27T09:52:30;9.30;99.90
74155;DHT22;62509;46.248;6.018;2024-01-27T09:57:33;9.40;99.90
74155;DHT22;62509;46.248;6.018;2024-01-27T10:02:39;9.40;99.90
74155;DHT22;62509;46.248;6.018;2024-01-27T10:07:43;9.50;99.90
74155;DHT22;62509;46.248;6.018;2024-01-27T10:12:47;9.60;99.90
74155;DHT22;62509;46.248;6.018;2024-01-27T10:17:53;9.60;99.90
74155;DHT22;62509;46.248;6.018;2024-01-27T10:23:11;9.70;99.90
74155;DHT22;62509;46.248;6.018;2024-01-27T10:28:15;9.80;99.90
74155;DHT22;62509;46.248;6.018;2024-01-27T10:33:20;9.90;99.90
74155;DHT22;62509;46.248;6.018;2024-01-27T10:38:32;9.90;99.90
74155;DHT22;62509;46.248;6.018;2024-01-27T10:43:37;10.00;99.90
74155;DHT22;62509;46.248;6.018;2024-01-27T10:48:42;10.10;99.90
74155;DHT22;62509;46.248;6.018;2024-01-27T10:53:49;10.10;99.90
74155;DHT22;62509;46.248;6.018;2024-01-27T10:58:52;10.10;99.90
74155;DHT22;62509;46.248;6.018;2024-01-27T11:03:58;10.10;99.90
74155;DHT22;62509;46.248;6.018;2024-01-27T11:09:02;10.20;99.90
74155;DHT22;62509;46.248;6.018;2024-01-27T11:14:07;10.20;99.90
74155;DHT22;62509;46.248;6.018;2024-01-27T11:19:13;10.40;99.90
74155;DHT22;62509;46.248;6.018;2024-01-27T11:24:18;10.50;99.90
74155;DHT22;62509;46.248;6.018;2024-01-27T11:29:22;10.50;99.90
74155;DHT22;62509;46.248;6.018;2024-01-27T11:34:30;10.40;99.90
74155;DHT22;62509;46.248;6.018;2024-01-27T11:39:44;10.50;99.90
74155;DHT22;62509;46.248;6.018;2024-01-27T11:44:48;10.50;99.90
74155;DHT22;62509;46.248;6.018;2024-01-27T11:49:53;10.60;99.90
74155;DHT22;62509;46.248;6.018;2024-01-27T11:54:59;10.70;99.90
74155;DHT22;62509;46.248;6.018;2024-01-27T12:00:04;10.70;99.90
74155;DHT22;62509;46.248;6.018;2024-01-27T12:05:10;10.60;99.90
74155;DHT22;62509;46.248;6.018;2024-01-27T12:10:14;10.50;99.90
74155;DHT22;62509;46.248;6.018;2024-01-27T12:15:19;10.50;99.90
74155;DHT22;62509;46.248;6.018;2024-01-27T12:20:25;10.50;99.90
74155;DHT22;62509;46.248;6.018;2024-01-27T12:25:29;10.50;99.90
74155;DHT22;62509;46.248;6.018;2024-01-27T12:30:32;10.50;99.90
74155;DHT22;62509;46.248;6.018;2024-01-27T12:35:37;10.50;99.90
74155;DHT22;62509;46.248;6.018;2024-01-27T12:40:40;10.50;99.90
74155;DHT22;62509;46.248;6.018;2024-01-27T12:45:45;10.40;99.90
74155;DHT22;62509;46.248;6.018;2024-01-27T12:50:50;10.50;99.90
74155;DHT22;62509;46.248;6.018;2024-01-27T12:55:55;10.50;99.90
74155;DHT22;62509;46.248;6.018;2024-01-27T13:00:58;10.60;99.90
74155;DHT22;62509;46.248;6.018;2024-01-27T13:06:04;10.60;99.90
74155;DHT22;62509;46.248;6.018;2024-01-27T13:11:08;10.70;99.90
74155;DHT22;62509;46.248;6.018;2024-01-27T13:16:11;10.70;99.90
74155;DHT22;62509;46.248;6.018;2024-01-27T13:21:17;10.80;99.90
74155;DHT22;62509;46.248;6.018;2024-01-27T13:26:22;10.80;99.90
74155;DHT22;62509;46.248;6.018;2024-01-27T13:31:28;10.80;99.90
74155;DHT22;62509;46.248;6.018;2024-01-27T13:36:33;10.70;99.90
74155;DHT22;62509;46.248;6.018;2024-01-27T13:41:37;10.80;99.90
74155;DHT22;62509;46.248;6.018;2024-01-27T13:53:04;10.90;99.90
74155;DHT22;62509;46.248;6.018;2024-01-27T13:58:08;11.00;99.90
74155;DHT22;62509;46.248;6.018;2024-01-27T14:03:12;11.00;99.90
74155;DHT22;62509;46.248;6.018;2024-01-27T14:08:19;10.90;99.90
74155;DHT22;62509;46.248;6.018;2024-01-27T14:13:23;10.90;99.90
74155;DHT22;62509;46.248;6.018;2024-01-27T14:18:27;11.00;99.90
74155;DHT22;62509;46.248;6.018;2024-01-27T14:23:32;11.10;99.90
74155;DHT22;62509;46.248;6.018;2024-01-27T14:28:35;11.10;99.90
74155;DHT22;62509;46.248;6.018;2024-01-27T14:33:39;11.00;99.90
74155;DHT22;62509;46.248;6.018;2024-01-27T14:38:45;11.00;99.90
74155;DHT22;62509;46.248;6.018;2024-01-27T14:43:48;11.10;99.90
74155;DHT22;62509;46.248;6.018;2024-01-27T14:48:52;11.10;99.90
74155;DHT22;62509;46.248;6.018;2024-01-27T14:53:57;11.00;99.90
74155;DHT22;62509;46.248;6.018;2024-01-27T14:59:05;11.00;99.90
74155;DHT22;62509;46.248;6.018;2024-01-27T15:04:09;10.90;99.90
74155;DHT22;62509;46.248;6.018;2024-01-27T15:09:14;10.80;99.90
74155;DHT22;62509;46.248;6.018;2024-01-27T15:14:19;10.60;99.90
74155;DHT22;62509;46.248;6.018;2024-01-27T15:19:22;10.60;99.90
74155;DHT22;62509;46.248;6.018;2024-01-27T15:24:27;10.60;99.90
74155;DHT22;62509;46.248;6.018;2024-01-27T15:29:35;10.50;99.90
74155;DHT22;62509;46.248;6.018;2024-01-27T15:34:38;10.50;99.90
74155;DHT22;62509;46.248;6.018;2024-01-27T15:39:43;10.40;99.90
74155;DHT22;62509;46.248;6.018;2024-01-27T15:44:47;10.40;99.90
74155;DHT22;62509;46.248;6.018;2024-01-27T15:49:53;10.40;99.90
74155;DHT22;62509;46.248;6.018;2024-01-27T15:55:00;10.30;99.90
74155;DHT22;62509;46.248;6.018;2024-01-27T16:00:04;10.30;99.90
74155;DHT22;62509;46.248;6.018;2024-01-27T16:05:12;10.20;99.90
74155;DHT22;62509;46.248;6.018;2024-01-27T16:10:17;10.20;99.90
74155;DHT22;62509;46.248;6.018;2024-01-27T16:15:21;10.20;99.90
74155;DHT22;62509;46.248;6.018;2024-01-27T16:20:24;10.10;99.90
74155;DHT22;62509;46.248;6.018;2024-01-27T16:25:29;10.20;99.90
74155;DHT22;62509;46.248;6.018;2024-01-27T16:30:32;10.20;99.90
74155;DHT22;62509;46.248;6.018;2024-01-27T16:35:36;10.20;99.90
74155;DHT22;62509;46.248;6.018;2024-01-27T16:40:41;10.20;99.90
74155;DHT22;62509;46.248;6.018;2024-01-27T16:45:44;10.20;99.90
74155;DHT22;62509;46.248;6.018;2024-01-27T16:50:48;10.20;99.90
74155;DHT22;62509;46.248;6.018;2024-01-27T16:55:53;10.20;99.90
74155;DHT22;62509;46.248;6.018;2024-01-27T17:00:56;10.20;99.90
74155;DHT22;62509;46.248;6.018;2024-01-27T17:06:00;10.10;99.90
74155;DHT22;62509;46.248;6.018;2024-01-27T17:11:05;10.10;99.90
74155;DHT22;62509;46.248;6.018;2024-01-27T17:16:09;10.10;99.90
74155;DHT22;62509;46.248;6.018;2024-01-27T17:21:12;10.00;99.90
74155;DHT22;62509;46.248;6.018;2024-01-27T17:26:17;10.10;99.90
74155;DHT22;62509;46.248;6.018;2024-01-27T17:31:21;10.10;99.90
74155;DHT22;62509;46.248;6.018;2024-01-27T17:36:25;10.10;99.90
74155;DHT22;62509;46.248;6.018;2024-01-27T17:41:34;10.20;99.90
74155;DHT22;62509;46.248;6.018;2024-01-27T17:46:37;10.10;99.90
74155;DHT22;62509;46.248;6.018;2024-01-27T17:51:44;10.10;99.90
74155;DHT22;62509;46.248;6.018;2024-01-27T17:56:51;10.10;99.90
74155;DHT22;62509;46.248;6.018;2024-01-27T18:01:57;10.00;99.90
74155;DHT22;62509;46.248;6.018;2024-01-27T18:07:00;9.80;99.90
74155;DHT22;62509;46.248;6.018;2024-01-27T18:12:05;9.80;99.90
74155;DHT22;62509;46.248;6.018;2024-01-27T18:17:10;9.80;99.90
74155;DHT22;62509;46.248;6.018;2024-01-27T18:27:32;9.60;99.90
74155;DHT22;62509;46.248;6.018;2024-01-27T18:32:35;9.50;99.90
74155;DHT22;62509;46.248;6.018;2024-01-27T18:37:39;9.40;99.90
74155;DHT22;62509;46.248;6.018;2024-01-27T18:42:45;9.20;99.90
74155;DHT22;62509;46.248;6.018;2024-01-27T18:47:48;9.10;99.90
74155;DHT22;62509;46.248;6.018;2024-01-27T18:52:52;9.10;99.90
74155;DHT22;62509;46.248;6.018;2024-01-27T18:57:56;9.10;99.90
74155;DHT22;62509;46.248;6.018;2024-01-27T19:03:01;9.00;99.90
74155;DHT22;62509;46.248;6.018;2024-01-27T19:08:05;8.80;99.90
74155;DHT22;62509;46.248;6.018;2024-01-27T19:13:11;8.60;99.90
74155;DHT22;62509;46.248;6.018;2024-01-27T19:18:14;8.40;99.90
74155;DHT22;62509;46.248;6.018;2024-01-27T19:23:18;8.30;99.90
74155;DHT22;62509;46.248;6.018;2024-01-27T19:28:23;8.20;99.90
74155;DHT22;62509;46.248;6.018;2024-01-27T19:33:27;8.10;99.90
74155;DHT22;62509;46.248;6.018;2024-01-27T19:38:30;8.00;99.90
74155;DHT22;62509;46.248;6.018;2024-01-27T19:43:35;7.90;99.90
74155;DHT22;62509;46.248;6.018;2024-01-27T19:48:40;7.90;99.90
74155;DHT22;62509;46.248;6.018;2024-01-27T19:53:44;7.90;99.90
74155;DHT22;62509;46.248;6.018;2024-01-27T19:58:49;7.90;99.90
74155;DHT22;62509;46.248;6.018;2024-01-27T20:03:52;7.70;99.90
74155;DHT22;62509;46.248;6.018;2024-01-27T20:08:56;7.60;99.90
74155;DHT22;62509;46.248;6.018;2024-01-27T20:14:14;7.50;99.90
74155;DHT22;62509;46.248;6.018;2024-01-27T20:19:18;7.40;99.90
74155;DHT22;62509;46.248;6.018;2024-01-27T20:24:24;7.30;99.90
74155;DHT22;62509;46.248;6.018;2024-01-27T20:29:29;7.20;99.90
74155;DHT22;62509;46.248;6.018;2024-01-27T20:34:32;7.10;99.90
74155;DHT22;62509;46.248;6.018;2024-01-27T20:39:36;7.10;99.90
74155;DHT22;62509;46.248;6.018;2024-01-27T20:44:44;7.00;99.90
74155;DHT22;62509;46.248;6.018;2024-01-27T20:49:49;6.90;99.90
74155;DHT22;62509;46.248;6.018;2024-01-27T20:54:52;7.00;99.90
74155;DHT22;62509;46.248;6.018;2024-01-27T20:59:57;7.10;99.90
74155;DHT22;62509;46.248;6.018;2024-01-27T21:05:03;7.10;99.90
74155;DHT22;62509;46.248;6.018;2024-01-27T21:10:07;7.10;99.90
74155;DHT22;62509;46.248;6.018;2024-01-27T21:15:12;7.20;99.90
74155;DHT22;62509;46.248;6.018;2024-01-27T21:20:18;7.20;99.90
74155;DHT22;62509;46.248;6.018;2024-01-27T21:25:22;7.20;99.90
74155;DHT22;62509;46.248;6.018;2024-01-27T21:30:26;7.30;99.90
74155;DHT22;62509;46.248;6.018;2024-01-27T21:35:31;7.30;99.90
74155;DHT22;62509;46.248;6.018;2024-01-27T21:40:35;7.40;99.90
74155;DHT22;62509;46.248;6.018;2024-01-27T21:45:44;7.40;99.90
74155;DHT22;62509;46.248;6.018;2024-01-27T21:50:49;7.50;99.90
74155;DHT22;62509;46.248;6.018;2024-01-27T21:55:52;7.50;99.90
74155;DHT22;62509;46.248;6.018;2024-01-27T22:00:58;7.50;99.90
74155;DHT22;62509;46.248;6.018;2024-01-27T22:06:02;7.50;99.90
74155;DHT22;62509;46.248;6.018;2024-01-27T22:11:07;7.60;99.90
74155;DHT22;62509;46.248;6.018;2024-01-27T22:16:13;7.60;99.90
74155;DHT22;62509;46.248;6.018;2024-01-27T22:21:16;7.60;99.90
74155;DHT22;62509;46.248;6.018;2024-01-27T22:26:20;7.60;99.90
74155;DHT22;62509;46.248;6.018;2024-01-27T22:31:24;7.60;99.90
74155;DHT22;62509;46.248;6.018;2024-01-27T22:36:28;7.60;99.90
74155;DHT22;62509;46.248;6.018;2024-01-27T22:41:31;7.60;99.90
74155;DHT22;62509;46.248;6.018;2024-01-27T22:46:36;7.60;99.90
74155;DHT22;62509;46.248;6.018;2024-01-27T22:51:40;7.60;99.90
74155;DHT22;62509;46.248;6.018;2024-01-27T22:56:46;7.60;99.90
74155;DHT22;62509;46.248;6.018;2024-01-27T23:01:51;7.50;99.90
74155;DHT22;62509;46.248;6.018;2024-01-27T23:06:54;7.50;99.90
74155;DHT22;62509;46.248;6.018;2024-01-27T23:11:58;7.60;99.90
74155;DHT22;62509;46.248;6.018;2024-01-27T23:17:03;7.50;99.90
74155;DHT22;62509;46.248;6.018;2024-01-27T23:22:06;7.60;99.90
74155;DHT22;62509;46.248;6.018;2024-01-27T23:27:10;7.60;99.90
74155;DHT22;62509;46.248;6.018;2024-01-27T23:32:15;7.70;99.90
74155;DHT22;62509;46.248;6.018;2024-01-27T23:37:18;7.70;99.90
74155;DHT22;62509;46.248;6.018;2024-01-27T23:42:21;7.70;99.90
74155;DHT22;62509;46.248;6.018;2024-01-27T23:47:27;7.60;99.90
74155;DHT22;62509;46.248;6.018;2024-01-27T23:52:30;7.80;99.90
74155;DHT22;62509;46.248;6.018;2024-01-27T23:57:37;7.80;99.90
